Airfield :
LOGIN :

Register | Disclaimer

   EN    FR    IT 

 










Legend :    VFR   Marginal VFR   IFR   Intensive IFR   Very Intensive IFR
Visi :
Ceiling :
>= 8 km
>= 3000ft
5 to 8 km
1000 to 3000 ft
1500m to 5 km
500 to 1000 ft
800 to 1500m
200 to 500 ft
< 800m
< 200 ft
Symbols :   Thunderstorms  Fog  Heavy snow  Heavy precipitations  Wind > 20 kt
SIGMETs :     Misc.  Thunderstorms  Icing  Turbulence  Mountain Waves  Volcanic Ashes






- Airport Elevation : 405 ft
- IATA code : ODH


EGVO - RAF Odiham

CURRENT METAR :
  • 150920Z 13004G15KT 8000 BR BKN004 BKN032 11/11 Q1004 BECMG SCT020 RMK YLO2 BECMG WHT

EXPIRED METARs :
  • 150850Z 23001KT 8000 BR OVC004 11/11 Q1004 BECMG SCT020 RMK YLO2 BECMG WHT
  • 150820Z 12001KT 4000 BR BKN003 11/11 Q1004 BECMG 8000 HZ BKN007 RMK YLO2 BECMG GRN
  • 150721Z 11002KT 3000 BR BKN003 BKN030 10/10 Q1003 BECMG 5000 BKN010 RMK YLO2 BECMG GRN
  • 150704Z 17002KT 1400 BR BKN002 SCT030 10/10 Q1003 BECMG 5000 BKN008 RMK AMB BECMG GRN
  • 150642Z 18002KT 0700 FG VV/// 10/10 Q1003 RED

TAF AMD TAF EGVO
Valid from the 15 at 09:00 until the 15 at 21:00 UTC


150828Z 1509/1521 24005KT 7000 HZ SCT004
BECMG 1509/1511 9999 NSW SCT020
BECMG 1511/1513 SCT025
PROB30
TEMPO 1513/1516 6000 SHRA SCT024



MET'MAP, your aeronautical weather chart ! - Copyright ORBIFLY December 2007 - Disclaimer

ORBIFLY MET'MAP TEAM :

Programming & Development : Alexandra Zaïnal
Concept & Development : Baudouin d'Aumeries
Co-Development & Prog : Marc-Olivier Méhu
Technical & hardware support : Manuel Goepfert

Contact : metmap@orbifly.com




SOURCES & CREDITS :

   NOAA